Time;durP1;ratioP1;P1;durP2;ratioP2;P2;SDS_P1;SDS_P2;PMS_P1;PMS_P2;Temp;Humidity;BMP_temperature;BMP_pressure;BME280_temperature;BME280_humidity;BME280_pressure;Samples;Min_cycle;Max_cycle;Signal;HPM_P1;HPM_P2
2021/05/06 00:02:37;;;;;;;;;;;18.80;50.90;;;;;;5009992;28;19924;-74
2021/05/06 00:05:22;;;;;;;;;;;18.80;50.90;;;;;;4992358;28;19979;-73
2021/05/06 00:08:03;;;;;;;;;;;18.80;50.90;;;;;;4998043;28;20024;-75
2021/05/06 00:32:12;;;;;;;;;;;18.80;50.60;;;;;;4996002;28;19933;-72
2021/05/06 00:34:38;;;;;;;;;;;18.80;50.50;;;;;;4995119;28;19925;-75
2021/05/06 00:37:03;;;;;;;;;;;18.80;50.50;;;;;;4997054;28;19922;-74
2021/05/06 00:39:36;;;;;;;;;;;18.80;50.50;;;;;;4995391;28;19917;-74
2021/05/06 00:42:10;;;;;;;;;;;18.70;50.40;;;;;;4980946;28;19921;-74
2021/05/06 00:55:59;;;;;;;;;;;18.70;50.40;;;;;;4993088;28;19960;-74
2021/05/06 01:03:54;;;;;;;;;;;18.70;50.30;;;;;;4991026;28;19918;-74
2021/05/06 01:06:22;;;;;;;;;;;18.70;50.30;;;;;;4999177;28;20000;-73
2021/05/06 01:08:52;;;;;;;;;;;18.70;50.30;;;;;;5003792;28;19917;-73
2021/05/06 01:11:29;;;;;;;;;;;18.80;50.30;;;;;;5001953;28;20290;-75
2021/05/06 01:14:00;;;;;;;;;;;18.70;50.20;;;;;;4995668;28;19922;-75
2021/05/06 01:16:26;;;;;;;;;;;18.70;50.20;;;;;;4979317;28;20324;-72
2021/05/06 01:18:51;;;;;;;;;;;18.70;50.20;;;;;;5002786;28;19977;-75
2021/05/06 01:21:17;;;;;;;;;;;18.70;50.20;;;;;;4992980;28;20387;-75
2021/05/06 01:23:44;;;;;;;;;;;18.70;50.20;;;;;;5006312;28;19917;-73
2021/05/06 01:26:15;;;;;;;;;;;18.70;50.10;;;;;;4995409;28;19922;-76
2021/05/06 01:28:43;;;;;;;;;;;18.70;50.20;;;;;;4998427;28;19997;-74
2021/05/06 01:31:18;;;;;;;;;;;18.70;50.10;;;;;;5000418;28;19918;-73
2021/05/06 01:33:58;;;;;;;;;;;18.70;50.10;;;;;;5000166;28;20142;-74
2021/05/06 01:36:30;;;;;;;;;;;18.70;50.10;;;;;;4976493;28;19921;-75
2021/05/06 01:47:02;;;;;;;;;;;18.70;50.00;;;;;;4996926;28;19926;-75
2021/05/06 02:00:30;;;;;;;;;;;18.60;50.00;;;;;;5001058;28;19918;-74
2021/05/06 02:02:56;;;;;;;;;;;18.60;50.00;;;;;;4990861;28;20363;-75
2021/05/06 02:05:21;;;;;;;;;;;18.60;50.00;;;;;;5015811;28;19918;-75
2021/05/06 02:07:47;;;;;;;;;;;18.60;50.00;;;;;;4998875;28;20306;-74
2021/05/06 02:10:15;;;;;;;;;;;18.60;50.00;;;;;;5018082;28;19988;-74
2021/05/06 02:12:40;;;;;;;;;;;18.60;50.00;;;;;;5001973;28;19917;-72
2021/05/06 02:15:10;;;;;;;;;;;18.60;49.90;;;;;;5008990;28;19925;-73
2021/05/06 02:17:36;;;;;;;;;;;18.60;49.90;;;;;;5013533;28;19918;-74
2021/05/06 02:20:01;;;;;;;;;;;18.60;49.90;;;;;;5002433;28;19928;-74
2021/05/06 02:22:27;;;;;;;;;;;18.60;50.00;;;;;;4987757;28;19922;-74
2021/05/06 02:24:52;;;;;;;;;;;18.60;50.00;;;;;;5015394;28;19928;-74
2021/05/06 02:27:18;;;;;;;;;;;18.60;50.00;;;;;;4991608;28;19924;-74
2021/05/06 02:29:43;;;;;;;;;;;18.50;49.90;;;;;;5007580;28;19924;-74
2021/05/06 02:32:08;;;;;;;;;;;18.60;50.00;;;;;;5006486;28;19918;-74
2021/05/06 02:34:34;;;;;;;;;;;18.60;50.00;;;;;;4982926;28;19922;-72
2021/05/06 02:36:59;;;;;;;;;;;18.60;49.90;;;;;;5011462;28;19956;-71
2021/05/06 02:39:25;;;;;;;;;;;18.60;49.90;;;;;;5006865;28;20295;-73
2021/05/06 02:41:50;;;;;;;;;;;18.60;49.90;;;;;;4988272;28;19939;-74
2021/05/06 02:44:16;;;;;;;;;;;18.60;49.90;;;;;;5001959;28;19918;-75
2021/05/06 02:46:41;;;;;;;;;;;18.50;49.90;;;;;;4996683;28;20598;-73
2021/05/06 02:49:07;;;;;;;;;;;18.50;49.90;;;;;;5019211;28;19922;-75
2021/05/06 02:51:37;;;;;;;;;;;18.50;49.80;;;;;;5008451;28;19941;-73
2021/05/06 02:54:03;;;;;;;;;;;18.50;49.90;;;;;;5007460;28;20119;-74
2021/05/06 02:56:37;;;;;;;;;;;18.50;49.90;;;;;;5002857;28;19924;-74
2021/05/06 03:04:22;;;;;;;;;;;18.50;49.90;;;;;;5014185;28;19972;-73
2021/05/06 03:07:00;;;;;;;;;;;18.50;49.80;;;;;;4998684;28;19918;-72
2021/05/06 03:12:26;;;;;;;;;;;18.50;49.90;;;;;;5026561;28;19917;-73
2021/05/06 03:22:46;;;;;;;;;;;18.50;49.90;;;;;;5006206;28;20111;-73
2021/05/06 03:25:13;;;;;;;;;;;18.50;49.90;;;;;;4997675;28;19928;-75
2021/05/06 03:28:02;;;;;;;;;;;18.50;49.90;;;;;;5004131;28;20394;-75
2021/05/06 03:44:05;;;;;;;;;;;18.40;49.90;;;;;;5008340;28;19984;-73
2021/05/06 03:46:55;;;;;;;;;;;18.40;49.90;;;;;;5005214;28;19945;-71
2021/05/06 04:16:30;;;;;;;;;;;18.40;49.90;;;;;;5000902;28;19949;-74
2021/05/06 04:22:02;;;;;;;;;;;18.40;49.80;;;;;;5002224;28;20013;-73
2021/05/06 04:27:25;;;;;;;;;;;18.40;49.90;;;;;;5004936;28;19925;-77
2021/05/06 04:37:55;;;;;;;;;;;18.40;50.10;;;;;;4974653;28;19928;-74
2021/05/06 04:45:57;;;;;;;;;;;18.50;50.10;;;;;;4999154;28;19925;-74
2021/05/06 04:53:36;;;;;;;;;;;18.50;50.40;;;;;;5010948;28;19913;-77
2021/05/06 05:04:35;;;;;;;;;;;18.50;51.00;;;;;;5004987;28;20363;-73
2021/05/06 05:09:59;;;;;;;;;;;18.40;50.60;;;;;;5002785;28;19921;-72
2021/05/06 05:17:44;;;;;;;;;;;18.50;50.40;;;;;;4998450;28;19929;-74
2021/05/06 05:20:20;;;;;;;;;;;18.50;50.30;;;;;;4975869;28;19917;-72
2021/05/06 05:27:49;;;;;;;;;;;18.50;50.80;;;;;;4986612;28;20013;-73
2021/05/06 05:30:15;;;;;;;;;;;18.40;50.70;;;;;;4987056;28;19918;-75
2021/05/06 05:32:40;;;;;;;;;;;18.50;50.40;;;;;;4986571;28;19917;-73
2021/05/06 05:35:14;;;;;;;;;;;18.50;50.10;;;;;;5004436;28;19979;-73
2021/05/06 05:37:45;;;;;;;;;;;18.50;49.90;;;;;;4975441;28;20446;-73
2021/05/06 05:40:18;;;;;;;;;;;18.50;49.70;;;;;;5003797;28;19913;-72
2021/05/06 05:55:59;;;;;;;;;;;18.50;49.10;;;;;;4990751;28;19921;-73
2021/05/06 05:58:25;;;;;;;;;;;18.40;49.10;;;;;;4996413;28;19944;-72
2021/05/06 06:00:50;;;;;;;;;;;18.50;49.20;;;;;;5002155;28;19941;-72
2021/05/06 06:03:16;;;;;;;;;;;18.40;49.10;;;;;;5000682;28;19914;-71
2021/05/06 06:05:41;;;;;;;;;;;18.50;49.30;;;;;;4993811;28;19921;-72
2021/05/06 06:08:07;;;;;;;;;;;18.50;49.20;;;;;;5007898;28;20295;-73
2021/05/06 06:10:32;;;;;;;;;;;18.50;49.30;;;;;;4994397;28;19921;-72
2021/05/06 06:12:58;;;;;;;;;;;18.50;49.20;;;;;;4988066;28;19922;-73
2021/05/06 06:15:37;;;;;;;;;;;18.50;49.30;;;;;;4987120;28;19922;-73
2021/05/06 06:18:13;;;;;;;;;;;18.50;49.40;;;;;;4988651;28;19925;-70
2021/05/06 06:20:41;;;;;;;;;;;18.50;49.40;;;;;;4993563;28;19913;-73
2021/05/06 06:23:06;;;;;;;;;;;18.40;49.40;;;;;;5010293;28;19919;-73
2021/05/06 06:25:32;;;;;;;;;;;18.40;49.50;;;;;;5010472;28;19913;-73
2021/05/06 06:27:57;;;;;;;;;;;18.50;49.50;;;;;;5010319;28;19944;-73
2021/05/06 06:30:23;;;;;;;;;;;18.40;49.50;;;;;;4991417;28;19932;-70
2021/05/06 06:32:49;;;;;;;;;;;18.40;49.50;;;;;;4991961;28;20520;-73
2021/05/06 06:35:14;;;;;;;;;;;18.40;49.60;;;;;;4990729;28;19914;-73
2021/05/06 06:37:40;;;;;;;;;;;18.40;49.60;;;;;;4990242;28;19933;-73
2021/05/06 06:40:05;;;;;;;;;;;18.40;49.60;;;;;;4989228;28;19918;-73
2021/05/06 06:42:31;;;;;;;;;;;18.40;50.20;;;;;;4990615;28;19922;-72
2021/05/06 06:44:56;;;;;;;;;;;18.40;49.60;;;;;;4988693;28;19921;-74
2021/05/06 06:47:22;;;;;;;;;;;18.40;49.70;;;;;;4990166;28;19981;-71
2021/05/06 06:49:47;;;;;;;;;;;18.40;49.60;;;;;;4989757;28;19924;-71
2021/05/06 06:52:13;;;;;;;;;;;18.40;49.70;;;;;;4998551;28;19914;-73
2021/05/06 06:54:40;;;;;;;;;;;18.40;49.70;;;;;;4988016;28;19921;-74
2021/05/06 06:57:08;;;;;;;;;;;18.40;49.70;;;;;;4988927;28;19941;-71
2021/05/06 06:59:33;;;;;;;;;;;18.40;49.80;;;;;;4993641;28;19914;-73
2021/05/06 07:01:58;;;;;;;;;;;18.40;49.70;;;;;;4989707;28;19920;-70
2021/05/06 07:04:24;;;;;;;;;;;18.40;49.80;;;;;;5005901;28;19936;-70
2021/05/06 07:06:49;;;;;;;;;;;18.40;49.80;;;;;;5008792;28;19921;-72
2021/05/06 07:09:15;;;;;;;;;;;18.40;49.80;;;;;;5008187;28;19921;-73
2021/05/06 07:11:40;;;;;;;;;;;18.40;49.70;;;;;;5008412;28;20338;-73
2021/05/06 07:14:06;;;;;;;;;;;18.40;49.70;;;;;;5005794;28;20566;-73
2021/05/06 07:16:31;;;;;;;;;;;18.40;49.70;;;;;;4981681;28;19940;-73
2021/05/06 07:18:57;;;;;;;;;;;18.40;49.70;;;;;;4992000;28;19971;-73
2021/05/06 07:21:23;;;;;;;;;;;18.40;49.70;;;;;;4995715;28;19953;-72
2021/05/06 07:23:48;;;;;;;;;;;18.40;49.80;;;;;;4987977;28;20374;-73
2021/05/06 07:26:14;;;;;;;;;;;18.40;49.80;;;;;;4993998;28;20446;-72
2021/05/06 07:28:40;;;;;;;;;;;18.40;49.80;;;;;;5006100;28;19913;-71
2021/05/06 07:31:06;;;;;;;;;;;18.40;49.90;;;;;;5005791;28;19921;-72
2021/05/06 07:33:31;;;;;;;;;;;18.30;49.80;;;;;;4988399;28;19976;-73
2021/05/06 07:35:57;;;;;;;;;;;18.30;49.90;;;;;;4988288;28;20071;-73
2021/05/06 07:38:23;;;;;;;;;;;18.30;49.70;;;;;;4986117;28;19929;-74
2021/05/06 07:40:48;;;;;;;;;;;18.40;49.80;;;;;;5004006;28;19924;-71
2021/05/06 07:43:13;;;;;;;;;;;18.30;49.80;;;;;;5008402;28;20019;-72
2021/05/06 07:45:39;;;;;;;;;;;18.30;49.70;;;;;;4998726;28;19941;-70
2021/05/06 07:48:05;;;;;;;;;;;18.40;49.70;;;;;;5003450;28;19925;-74
2021/05/06 07:50:30;;;;;;;;;;;18.30;49.70;;;;;;5008228;28;19981;-72
2021/05/06 07:53:04;;;;;;;;;;;18.30;49.70;;;;;;5008718;28;19965;-73
2021/05/06 07:55:30;;;;;;;;;;;18.30;49.70;;;;;;5009236;28;19921;-73
2021/05/06 07:57:56;;;;;;;;;;;18.30;49.80;;;;;;5008257;28;19961;-73
2021/05/06 08:00:21;;;;;;;;;;;18.30;49.70;;;;;;4982717;28;19921;-72
2021/05/06 08:02:49;;;;;;;;;;;18.30;49.70;;;;;;4995386;28;19944;-73
2021/05/06 08:05:14;;;;;;;;;;;18.30;49.70;;;;;;4990330;28;19913;-71
2021/05/06 08:07:40;;;;;;;;;;;18.30;49.70;;;;;;4996481;28;20319;-71
2021/05/06 08:10:06;;;;;;;;;;;18.30;49.80;;;;;;4990862;28;19920;-69
2021/05/06 08:12:31;;;;;;;;;;;18.30;49.80;;;;;;5004410;28;19925;-71
2021/05/06 08:14:57;;;;;;;;;;;18.30;49.80;;;;;;4993117;28;19917;-73
2021/05/06 08:17:23;;;;;;;;;;;18.30;49.70;;;;;;5009675;28;20061;-72
2021/05/06 08:19:48;;;;;;;;;;;18.30;49.70;;;;;;4992575;28;19920;-72
2021/05/06 08:22:14;;;;;;;;;;;18.30;49.70;;;;;;5004435;28;19913;-72
2021/05/06 08:24:40;;;;;;;;;;;18.30;49.70;;;;;;4969102;28;19914;-74
2021/05/06 08:27:05;;;;;;;;;;;18.30;49.70;;;;;;4985249;28;19921;-74
2021/05/06 08:29:31;;;;;;;;;;;18.30;49.80;;;;;;4986834;28;19913;-73
2021/05/06 08:31:56;;;;;;;;;;;18.30;49.70;;;;;;4987025;28;20367;-73
2021/05/06 08:34:22;;;;;;;;;;;18.30;49.70;;;;;;4970439;28;19917;-74
2021/05/06 08:36:47;;;;;;;;;;;18.30;49.70;;;;;;5006161;28;19917;-68
2021/05/06 08:39:13;;;;;;;;;;;18.30;49.80;;;;;;4983203;28;19913;-72
2021/05/06 08:41:41;;;;;;;;;;;18.30;49.70;;;;;;4996343;28;19913;-74
2021/05/06 08:44:09;;;;;;;;;;;18.30;49.80;;;;;;4989599;28;19913;-69
2021/05/06 08:46:37;;;;;;;;;;;18.30;49.70;;;;;;5007291;28;19921;-74
2021/05/06 08:49:03;;;;;;;;;;;18.30;49.70;;;;;;5007327;28;19922;-73
2021/05/06 08:51:29;;;;;;;;;;;18.30;49.70;;;;;;5006771;28;19921;-73
2021/05/06 08:53:54;;;;;;;;;;;18.30;49.70;;;;;;5008200;28;20748;-73
2021/05/06 08:56:20;;;;;;;;;;;18.30;49.70;;;;;;5007488;28;19931;-72
2021/05/06 08:58:45;;;;;;;;;;;18.20;49.70;;;;;;4998498;28;19917;-72
2021/05/06 09:01:10;;;;;;;;;;;18.20;49.70;;;;;;4988500;28;19918;-73
2021/05/06 09:03:36;;;;;;;;;;;18.20;49.70;;;;;;4987800;28;20286;-73
2021/05/06 09:06:11;;;;;;;;;;;18.30;49.70;;;;;;4983753;28;19964;-73
2021/05/06 09:08:40;;;;;;;;;;;18.20;49.70;;;;;;5012032;28;20394;-74
2021/05/06 09:11:06;;;;;;;;;;;18.20;49.70;;;;;;5007548;28;20004;-71
2021/05/06 09:13:31;;;;;;;;;;;18.30;49.60;;;;;;4991966;28;19914;-73
2021/05/06 09:15:57;;;;;;;;;;;18.20;49.70;;;;;;4990643;28;19914;-73
2021/05/06 09:18:38;;;;;;;;;;;18.20;49.90;;;;;;5003731;28;20413;-72
2021/05/06 09:21:04;;;;;;;;;;;18.20;49.60;;;;;;4995795;28;19920;-73
2021/05/06 09:23:30;;;;;;;;;;;18.20;49.60;;;;;;4991434;28;19921;-73
2021/05/06 09:25:59;;;;;;;;;;;18.20;49.60;;;;;;4990205;28;19914;-74
2021/05/06 09:28:26;;;;;;;;;;;18.20;49.60;;;;;;4997729;23;19934;-60
2021/05/06 09:31:01;;;;;;;;;;;18.20;49.60;;;;;;4982023;28;19918;-60
2021/05/06 09:33:31;;;;;;;;;;;18.20;49.60;;;;;;4972968;28;20570;-58
2021/05/06 09:35:56;;;;;;;;;;;18.20;49.60;;;;;;4965896;28;19997;-61
2021/05/06 09:38:28;;;;;;;;;;;18.20;49.60;;;;;;4965796;28;20399;-58
2021/05/06 09:40:53;;;;;;;;;;;18.20;49.60;;;;;;4965875;28;19922;-55
2021/05/06 09:43:26;;;;;;;;;;;18.20;49.60;;;;;;4974009;28;19914;-57
2021/05/06 09:45:51;;;;;;;;;;;18.20;49.60;;;;;;4981261;28;20697;-54
2021/05/06 09:48:17;;;;;;;;;;;18.20;49.60;;;;;;4983863;28;19952;-60
2021/05/06 09:50:47;;;;;;;;;;;18.20;49.60;;;;;;4981097;28;19925;-58
2021/05/06 09:53:13;;;;;;;;;;;18.20;49.60;;;;;;4976302;28;20013;-59
2021/05/06 09:55:39;;;;;;;;;;;18.20;49.60;;;;;;4984817;28;19913;-60
2021/05/06 09:58:24;;;;;;;;;;;18.20;49.60;;;;;;4980548;28;19921;-59
2021/05/06 10:00:49;;;;;;;;;;;18.20;49.60;;;;;;4984458;28;19918;-59
2021/05/06 10:03:19;;;;;;;;;;;18.20;49.60;;;;;;4973033;28;20381;-59
2021/05/06 10:05:44;;;;;;;;;;;18.20;49.60;;;;;;5004323;28;19952;-59
2021/05/06 10:08:10;;;;;;;;;;;18.20;49.60;;;;;;5004350;28;19959;-60
2021/05/06 10:10:36;;;;;;;;;;;18.20;49.60;;;;;;4968758;28;19921;-60
2021/05/06 10:13:03;;;;;;;;;;;18.20;49.60;;;;;;4986058;28;19914;-60
2021/05/06 10:15:28;;;;;;;;;;;18.20;49.60;;;;;;5003821;28;19913;-61
2021/05/06 10:17:55;;;;;;;;;;;18.20;49.60;;;;;;5003576;28;19976;-61
2021/05/06 10:20:23;;;;;;;;;;;18.20;49.60;;;;;;5004319;28;19976;-61
2021/05/06 10:22:49;;;;;;;;;;;18.20;49.60;;;;;;4999791;28;19948;-60
2021/05/06 10:25:14;;;;;;;;;;;18.20;49.60;;;;;;5004508;28;19976;-59
2021/05/06 10:27:40;;;;;;;;;;;18.20;49.70;;;;;;4986387;28;19922;-60
2021/05/06 10:30:05;;;;;;;;;;;18.20;49.70;;;;;;4978259;28;20652;-64
2021/05/06 10:32:31;;;;;;;;;;;18.20;49.70;;;;;;4985332;28;19918;-61
2021/05/06 10:34:58;;;;;;;;;;;18.20;50.40;;;;;;4986337;28;20375;-61
2021/05/06 10:37:28;;;;;;;;;;;18.20;49.80;;;;;;4983145;28;20025;-57
2021/05/06 10:39:53;;;;;;;;;;;18.20;49.80;;;;;;4988912;28;19921;-61
2021/05/06 10:42:25;;;;;;;;;;;18.10;49.70;;;;;;5004488;28;19925;-60
2021/05/06 10:44:54;;;;;;;;;;;18.20;49.80;;;;;;5003874;28;20290;-58
2021/05/06 10:47:38;;;;;;;;;;;18.20;49.80;;;;;;5019758;23;20305;-67
2021/05/06 10:50:08;;;;;;;;;;;18.20;49.80;;;;;;5006041;28;20157;-66
2021/05/06 10:52:37;;;;;;;;;;;18.20;49.80;;;;;;4988522;28;19921;-67
2021/05/06 10:55:03;;;;;;;;;;;18.10;49.80;;;;;;5002148;28;19917;-67
2021/05/06 10:57:31;;;;;;;;;;;18.20;49.80;;;;;;5004679;28;20536;-67
2021/05/06 10:59:57;;;;;;;;;;;18.20;49.80;;;;;;5005096;28;19916;-67
2021/05/06 11:02:41;;;;;;;;;;;18.20;49.80;;;;;;5007130;28;19918;-67
2021/05/06 11:05:13;;;;;;;;;;;18.20;49.80;;;;;;5006298;28;19909;-67
2021/05/06 11:07:38;;;;;;;;;;;18.10;49.80;;;;;;5005518;28;19909;-67
2021/05/06 11:10:04;;;;;;;;;;;18.10;49.80;;;;;;5006270;28;19917;-66
2021/05/06 11:12:33;;;;;;;;;;;18.10;49.80;;;;;;5007160;28;19972;-67
2021/05/06 11:15:02;;;;;;;;;;;18.10;49.80;;;;;;5007231;28;19917;-67
2021/05/06 11:17:39;;;;;;;;;;;18.10;50.40;;;;;;5006144;28;20004;-67
2021/05/06 11:20:11;;;;;;;;;;;18.20;49.90;;;;;;5005975;28;19915;-67
2021/05/06 11:22:43;;;;;;;;;;;18.10;49.90;;;;;;5007402;28;19964;-67
2021/05/06 11:25:41;;;;;;;;;;;18.10;49.80;;;;;;5006785;28;19935;-67
2021/05/06 11:28:07;;;;;;;;;;;18.10;49.90;;;;;;5004869;28;19995;-67
2021/05/06 11:30:48;;;;;;;;;;;18.10;49.90;;;;;;5006598;28;20556;-67
2021/05/06 11:33:17;;;;;;;;;;;18.10;49.90;;;;;;5005285;28;19968;-67
2021/05/06 11:35:55;;;;;;;;;;;18.10;49.90;;;;;;5006999;28;19999;-67
2021/05/06 11:38:42;;;;;;;;;;;18.10;50.00;;;;;;5005817;28;19925;-67
2021/05/06 11:41:11;;;;;;;;;;;18.10;49.90;;;;;;5006104;28;20594;-66
2021/05/06 11:43:37;;;;;;;;;;;18.20;49.90;;;;;;5004763;28;20000;-68
2021/05/06 11:46:12;;;;;;;;;;;18.20;49.90;;;;;;5005390;28;19918;-67
2021/05/06 11:48:45;;;;;;;;;;;18.10;49.80;;;;;;5006806;28;19909;-67
2021/05/06 11:51:24;;;;;;;;;;;18.20;49.80;;;;;;5006839;28;20056;-67
2021/05/06 11:54:08;;;;;;;;;;;18.20;49.80;;;;;;5005759;28;20528;-66
2021/05/06 11:56:38;;;;;;;;;;;18.20;49.90;;;;;;5005699;28;19968;-66
2021/05/06 11:59:05;;;;;;;;;;;18.20;49.90;;;;;;5005703;28;19920;-66
2021/05/06 12:01:31;;;;;;;;;;;18.20;49.90;;;;;;5006161;28;19940;-66
2021/05/06 12:03:56;;;;;;;;;;;18.20;49.90;;;;;;5006235;28;19917;-66
2021/05/06 12:06:28;;;;;;;;;;;18.20;50.00;;;;;;5005692;28;20439;-66
2021/05/06 12:08:54;;;;;;;;;;;18.10;49.90;;;;;;5005799;28;19909;-66
2021/05/06 12:11:20;;;;;;;;;;;18.20;50.00;;;;;;5005868;28;19916;-66
2021/05/06 12:13:50;;;;;;;;;;;18.20;50.00;;;;;;5005301;28;19972;-66
2021/05/06 12:16:19;;;;;;;;;;;18.20;50.00;;;;;;5005081;28;19913;-65
2021/05/06 12:18:54;;;;;;;;;;;18.20;50.00;;;;;;5006456;28;19964;-66
2021/05/06 12:21:19;;;;;;;;;;;18.20;49.90;;;;;;5006313;28;19910;-67
2021/05/06 12:23:48;;;;;;;;;;;18.20;50.00;;;;;;5004587;28;19910;-67
2021/05/06 12:26:17;;;;;;;;;;;18.20;50.00;;;;;;5005820;28;19964;-66
2021/05/06 12:28:42;;;;;;;;;;;18.20;50.00;;;;;;5004853;28;20343;-66
2021/05/06 12:31:08;;;;;;;;;;;18.20;50.00;;;;;;5005323;28;19966;-66
2021/05/06 12:33:33;;;;;;;;;;;18.20;50.00;;;;;;5006080;28;19909;-65
2021/05/06 12:35:59;;;;;;;;;;;18.20;50.00;;;;;;5005596;28;19910;-66
2021/05/06 12:38:24;;;;;;;;;;;18.20;50.00;;;;;;5005688;28;20300;-64
2021/05/06 12:40:52;;;;;;;;;;;18.20;50.00;;;;;;5004287;28;19913;-66
2021/05/06 12:43:31;;;;;;;;;;;18.10;50.00;;;;;;5005350;28;19914;-66
2021/05/06 12:46:01;;;;;;;;;;;18.20;50.10;;;;;;5005764;28;19917;-65
2021/05/06 12:48:35;;;;;;;;;;;18.20;50.00;;;;;;5004815;28;19909;-67
2021/05/06 12:51:01;;;;;;;;;;;18.20;50.00;;;;;;5005234;28;20012;-67
2021/05/06 12:53:26;;;;;;;;;;;18.10;50.00;;;;;;5004332;28;20300;-66
2021/05/06 12:55:52;;;;;;;;;;;18.20;50.10;;;;;;5004907;28;20363;-67
2021/05/06 12:58:24;;;;;;;;;;;18.20;50.00;;;;;;5004454;28;19913;-66
2021/05/06 13:00:54;;;;;;;;;;;18.20;50.00;;;;;;5004615;28;19956;-66
2021/05/06 13:03:25;;;;;;;;;;;18.20;50.00;;;;;;5003814;28;19996;-66
2021/05/06 13:05:51;;;;;;;;;;;18.20;50.00;;;;;;5004997;28;20373;-66
2021/05/06 13:08:16;;;;;;;;;;;18.20;50.00;;;;;;5004647;28;19971;-66
2021/05/06 13:10:43;;;;;;;;;;;18.10;50.00;;;;;;5004842;28;20363;-66
2021/05/06 13:13:09;;;;;;;;;;;18.20;50.00;;;;;;5004916;28;19917;-66
2021/05/06 13:15:48;;;;;;;;;;;18.20;50.00;;;;;;5005340;28;20393;-67
2021/05/06 13:18:14;;;;;;;;;;;18.20;50.00;;;;;;5001081;28;19963;-66
2021/05/06 13:20:39;;;;;;;;;;;18.20;50.00;;;;;;5003951;28;19909;-66
2021/05/06 13:23:05;;;;;;;;;;;18.20;50.00;;;;;;5004377;28;19914;-67
2021/05/06 13:25:44;;;;;;;;;;;18.20;50.00;;;;;;5004866;28;20379;-67
2021/05/06 13:28:10;;;;;;;;;;;18.20;50.00;;;;;;5003264;28;20086;-66
2021/05/06 13:30:36;;;;;;;;;;;18.20;50.00;;;;;;5002272;28;19909;-67
2021/05/06 13:33:11;;;;;;;;;;;18.20;50.00;;;;;;5004997;28;19910;-67
2021/05/06 13:35:36;;;;;;;;;;;18.20;50.00;;;;;;5004720;28;19960;-66
2021/05/06 13:38:01;;;;;;;;;;;18.20;50.00;;;;;;5005241;28;19914;-67
2021/05/06 13:40:27;;;;;;;;;;;18.20;50.00;;;;;;5004532;28;20678;-67
2021/05/06 13:42:52;;;;;;;;;;;18.20;50.00;;;;;;5004124;28;20024;-65
2021/05/06 13:45:18;;;;;;;;;;;18.20;50.00;;;;;;5004400;28;19910;-66
2021/05/06 13:47:47;;;;;;;;;;;18.20;50.00;;;;;;5004788;28;19913;-66
2021/05/06 13:50:13;;;;;;;;;;;18.20;50.10;;;;;;5004409;28;19968;-66
2021/05/06 13:52:39;;;;;;;;;;;18.20;50.80;;;;;;5009239;28;20013;-67
2021/05/06 13:55:04;;;;;;;;;;;18.20;50.10;;;;;;5007306;28;19910;-67
2021/05/06 13:57:32;;;;;;;;;;;18.20;50.10;;;;;;5008575;28;19967;-67
2021/05/06 13:59:57;;;;;;;;;;;18.20;50.20;;;;;;5007996;28;19921;-67
2021/05/06 14:02:23;;;;;;;;;;;18.20;50.20;;;;;;5008169;28;20482;-67
2021/05/06 14:04:49;;;;;;;;;;;18.10;50.20;;;;;;5007739;28;19913;-67
2021/05/06 14:07:14;;;;;;;;;;;18.20;50.20;;;;;;5008063;28;19932;-67
2021/05/06 14:09:40;;;;;;;;;;;18.20;50.20;;;;;;5006284;28;20372;-67
2021/05/06 14:12:06;;;;;;;;;;;18.20;50.20;;;;;;5008325;28;19984;-66
2021/05/06 14:14:31;;;;;;;;;;;18.20;50.20;;;;;;5007072;28;19909;-67
2021/05/06 14:16:57;;;;;;;;;;;18.20;50.20;;;;;;5007864;28;19912;-67
2021/05/06 14:19:22;;;;;;;;;;;18.20;50.20;;;;;;5005963;28;20438;-67
2021/05/06 14:21:49;;;;;;;;;;;18.10;50.20;;;;;;5008086;28;19909;-68
2021/05/06 14:24:14;;;;;;;;;;;18.20;50.20;;;;;;5008060;28;19910;-67
2021/05/06 14:26:40;;;;;;;;;;;18.20;50.20;;;;;;5008356;28;19917;-67
2021/05/06 14:29:05;;;;;;;;;;;18.10;50.20;;;;;;5008276;28;20389;-67
2021/05/06 14:31:31;;;;;;;;;;;18.10;50.20;;;;;;5007252;28;20625;-67
2021/05/06 14:33:56;;;;;;;;;;;18.20;50.30;;;;;;5007575;28;19957;-67
2021/05/06 14:36:22;;;;;;;;;;;18.20;50.30;;;;;;5007737;28;19914;-67
2021/05/06 14:38:47;;;;;;;;;;;18.10;50.30;;;;;;5005636;28;20004;-67
2021/05/06 14:41:13;;;;;;;;;;;18.20;50.20;;;;;;5007266;28;19913;-67
2021/05/06 14:43:38;;;;;;;;;;;18.10;50.20;;;;;;5006799;28;20377;-67
2021/05/06 14:46:04;;;;;;;;;;;18.20;50.30;;;;;;5007050;28;20020;-67
2021/05/06 14:48:29;;;;;;;;;;;18.20;50.20;;;;;;5005941;28;19913;-67
2021/05/06 14:50:55;;;;;;;;;;;18.20;50.30;;;;;;5008841;28;20365;-68
2021/05/06 14:53:20;;;;;;;;;;;18.20;50.20;;;;;;5005914;28;19910;-66
2021/05/06 14:55:46;;;;;;;;;;;18.20;50.20;;;;;;5006805;28;19909;-66
2021/05/06 14:58:11;;;;;;;;;;;18.20;50.30;;;;;;5007692;28;19959;-66
2021/05/06 15:00:37;;;;;;;;;;;18.20;50.20;;;;;;5007756;28;19915;-65
2021/05/06 15:03:02;;;;;;;;;;;18.20;50.20;;;;;;5007652;28;19957;-64
2021/05/06 15:05:28;;;;;;;;;;;18.20;50.20;;;;;;5007109;28;19910;-66
2021/05/06 15:07:53;;;;;;;;;;;18.20;50.20;;;;;;5007941;28;19909;-64
2021/05/06 15:10:19;;;;;;;;;;;18.20;50.20;;;;;;5007823;28;19913;-64
2021/05/06 15:12:46;;;;;;;;;;;18.20;50.10;;;;;;5008695;28;20205;-65
2021/05/06 15:15:11;;;;;;;;;;;18.20;50.10;;;;;;5009350;28;20379;-67
2021/05/06 15:17:37;;;;;;;;;;;18.20;50.20;;;;;;5009124;28;19914;-66
2021/05/06 15:20:03;;;;;;;;;;;18.20;50.20;;;;;;5009009;28;19909;-64
2021/05/06 15:22:28;;;;;;;;;;;18.20;50.10;;;;;;5009006;28;19909;-67
2021/05/06 15:24:53;;;;;;;;;;;18.20;50.00;;;;;;5009059;28;19962;-66
2021/05/06 15:27:19;;;;;;;;;;;18.20;50.00;;;;;;5005755;28;20388;-66
2021/05/06 15:29:45;;;;;;;;;;;18.20;50.00;;;;;;5006825;28;19967;-66
2021/05/06 15:32:11;;;;;;;;;;;18.20;49.90;;;;;;5006919;28;20411;-67
2021/05/06 15:34:36;;;;;;;;;;;18.20;50.00;;;;;;5007258;28;19914;-66
2021/05/06 15:37:02;;;;;;;;;;;18.20;49.90;;;;;;5007000;28;19909;-65
2021/05/06 15:39:27;;;;;;;;;;;18.20;50.00;;;;;;5005977;28;19910;-65
2021/05/06 15:41:52;;;;;;;;;;;18.20;49.90;;;;;;5005987;28;19921;-66
2021/05/06 15:44:18;;;;;;;;;;;18.20;49.90;;;;;;5005464;28;20288;-66
2021/05/06 15:46:43;;;;;;;;;;;18.20;49.90;;;;;;5004376;28;19925;-65
2021/05/06 15:49:09;;;;;;;;;;;18.30;49.90;;;;;;5006542;28;20576;-64
2021/05/06 15:51:34;;;;;;;;;;;18.20;49.80;;;;;;5007707;28;19955;-68
2021/05/06 15:54:00;;;;;;;;;;;18.30;49.90;;;;;;5007074;28;19971;-68
2021/05/06 15:56:25;;;;;;;;;;;18.30;49.90;;;;;;5005280;28;19909;-67
2021/05/06 15:58:52;;;;;;;;;;;18.20;49.90;;;;;;5007071;28;19913;-67
2021/05/06 16:01:19;;;;;;;;;;;18.20;49.90;;;;;;5006053;28;19941;-67
2021/05/06 16:03:49;;;;;;;;;;;18.20;49.90;;;;;;5005787;28;21204;-67
2021/05/06 16:06:15;;;;;;;;;;;18.20;50.00;;;;;;5006378;28;20445;-67
2021/05/06 16:08:40;;;;;;;;;;;18.20;49.90;;;;;;5006324;28;19909;-67
2021/05/06 16:11:06;;;;;;;;;;;18.20;49.90;;;;;;5006566;28;19910;-67
2021/05/06 16:13:31;;;;;;;;;;;18.20;49.90;;;;;;5005711;28;19914;-67
2021/05/06 16:15:57;;;;;;;;;;;18.20;50.00;;;;;;5004939;28;20369;-67
2021/05/06 16:18:23;;;;;;;;;;;18.20;49.90;;;;;;5005994;28;20431;-67
2021/05/06 16:20:48;;;;;;;;;;;18.20;49.90;;;;;;5006199;28;19910;-67
2021/05/06 16:23:14;;;;;;;;;;;18.20;49.90;;;;;;5006228;28;19914;-67
2021/05/06 16:25:40;;;;;;;;;;;18.20;49.90;;;;;;5006319;28;20553;-67
2021/05/06 16:28:06;;;;;;;;;;;18.20;49.80;;;;;;5006513;28;20059;-67
2021/05/06 16:30:31;;;;;;;;;;;18.20;49.90;;;;;;5005423;28;19944;-66
2021/05/06 16:32:58;;;;;;;;;;;18.20;49.90;;;;;;5006258;28;19910;-67
2021/05/06 16:35:28;;;;;;;;;;;18.20;49.90;;;;;;5005867;28;19913;-67
2021/05/06 16:37:58;;;;;;;;;;;18.20;49.90;;;;;;5006293;28;19921;-67
2021/05/06 16:40:31;;;;;;;;;;;18.20;49.90;;;;;;5006223;28;19913;-67
2021/05/06 16:45:42;;;;;;;;;;;18.20;49.90;;;;;;5005532;28;20431;-67
2021/05/06 16:48:11;;;;;;;;;;;18.20;49.90;;;;;;5005504;23;19933;-71
2021/05/06 16:50:36;;;;;;;;;;;18.20;49.90;;;;;;4943125;28;19914;-72
2021/05/06 16:53:02;;;;;;;;;;;18.20;49.90;;;;;;4955417;28;20284;-72
2021/05/06 16:55:27;;;;;;;;;;;18.20;49.90;;;;;;4980738;28;19980;-71
2021/05/06 16:57:53;;;;;;;;;;;18.20;50.00;;;;;;4999079;28;19917;-73
2021/05/06 17:00:19;;;;;;;;;;;18.20;50.00;;;;;;4998955;28;19936;-70
2021/05/06 17:02:44;;;;;;;;;;;18.20;50.00;;;;;;4985888;28;19921;-72
2021/05/06 17:05:13;;;;;;;;;;;18.10;50.00;;;;;;4996802;28;20728;-71
2021/05/06 17:07:39;;;;;;;;;;;18.20;50.00;;;;;;4974946;28;20291;-73
2021/05/06 17:10:05;;;;;;;;;;;18.20;50.00;;;;;;5005453;28;19913;-70
2021/05/06 17:12:31;;;;;;;;;;;18.20;50.00;;;;;;4971504;28;20893;-73
2021/05/06 17:14:57;;;;;;;;;;;18.20;50.00;;;;;;4984173;28;19964;-72
2021/05/06 17:17:22;;;;;;;;;;;18.20;50.00;;;;;;5005925;28;19949;-73